sensor_id;sensor_type;location;lat;lon;timestamp;pressure;altitude;pressure_sealevel;temperature;humidity
19761;BME280;10039;42.632;23.408;2023-03-21T00:00:40;94829.88;;;12.55;53.94
19761;BME280;10039;42.632;23.408;2023-03-21T00:03:06;94817.75;;;12.38;53.60
19761;BME280;10039;42.632;23.408;2023-03-21T00:05:33;94809.69;;;12.26;53.98
19761;BME280;10039;42.632;23.408;2023-03-21T00:07:59;94788.66;;;12.12;54.11
19761;BME280;10039;42.632;23.408;2023-03-21T00:10:25;94799.31;;;12.27;54.16
19761;BME280;10039;42.632;23.408;2023-03-21T00:12:50;94822.38;;;12.50;53.58
19761;BME280;10039;42.632;23.408;2023-03-21T00:15:23;94820.25;;;12.57;53.75
19761;BME280;10039;42.632;23.408;2023-03-21T00:17:56;94804.28;;;12.41;53.45
19761;BME280;10039;42.632;23.408;2023-03-21T00:20:30;94795.69;;;12.34;53.43
19761;BME280;10039;42.632;23.408;2023-03-21T00:22:58;94820.69;;;12.56;53.61
19761;BME280;10039;42.632;23.408;2023-03-21T00:25:24;94805.66;;;12.46;53.53
19761;BME280;10039;42.632;23.408;2023-03-21T00:27:50;94789.91;;;12.35;53.41
19761;BME280;10039;42.632;23.408;2023-03-21T00:30:16;94803.19;;;12.51;53.57
19761;BME280;10039;42.632;23.408;2023-03-21T00:32:42;94821.00;;;12.58;53.32
19761;BME280;10039;42.632;23.408;2023-03-21T00:35:07;94819.69;;;12.50;53.31
19761;BME280;10039;42.632;23.408;2023-03-21T00:37:33;94804.34;;;12.38;53.68
19761;BME280;10039;42.632;23.408;2023-03-21T00:39:59;94777.34;;;12.20;53.59
19761;BME280;10039;42.632;23.408;2023-03-21T00:42:25;94798.00;;;12.20;53.79
19761;BME280;10039;42.632;23.408;2023-03-21T00:44:51;94829.72;;;12.33;54.66
19761;BME280;10039;42.632;23.408;2023-03-21T00:47:17;94815.47;;;12.24;54.41
19761;BME280;10039;42.632;23.408;2023-03-21T00:49:42;94843.41;;;12.23;54.62
19761;BME280;10039;42.632;23.408;2023-03-21T00:52:09;94812.59;;;11.90;54.45
19761;BME280;10039;42.632;23.408;2023-03-21T00:54:35;94840.63;;;11.98;54.18
19761;BME280;10039;42.632;23.408;2023-03-21T00:57:02;94807.81;;;11.82;54.35
19761;BME280;10039;42.632;23.408;2023-03-21T00:59:28;94817.72;;;11.97;54.49
19761;BME280;10039;42.632;23.408;2023-03-21T01:01:54;94828.91;;;12.08;54.38
19761;BME280;10039;42.632;23.408;2023-03-21T01:04:21;94804.13;;;11.92;54.01
19761;BME280;10039;42.632;23.408;2023-03-21T01:06:52;94820.66;;;12.03;54.04
19761;BME280;10039;42.632;23.408;2023-03-21T01:09:20;94828.25;;;12.04;54.13
19761;BME280;10039;42.632;23.408;2023-03-21T01:11:46;94814.47;;;12.06;54.26
19761;BME280;10039;42.632;23.408;2023-03-21T01:14:13;94820.88;;;12.08;53.99
19761;BME280;10039;42.632;23.408;2023-03-21T01:16:40;94796.44;;;11.94;54.37
19761;BME280;10039;42.632;23.408;2023-03-21T01:19:07;94806.25;;;11.84;54.14
19761;BME280;10039;42.632;23.408;2023-03-21T01:21:36;94827.31;;;11.82;54.46
19761;BME280;10039;42.632;23.408;2023-03-21T01:24:01;94805.59;;;11.64;54.92
19761;BME280;10039;42.632;23.408;2023-03-21T01:26:27;94827.31;;;11.82;54.47
19761;BME280;10039;42.632;23.408;2023-03-21T01:28:53;94787.75;;;11.61;54.61
19761;BME280;10039;42.632;23.408;2023-03-21T01:31:19;94827.31;;;11.82;54.93
19761;BME280;10039;42.632;23.408;2023-03-21T01:33:45;94782.72;;;11.63;54.88
19761;BME280;10039;42.632;23.408;2023-03-21T01:36:17;94791.06;;;11.65;54.75
19761;BME280;10039;42.632;23.408;2023-03-21T01:38:43;94805.91;;;11.82;54.84
19761;BME280;10039;42.632;23.408;2023-03-21T01:41:31;94819.78;;;11.77;55.01
19761;BME280;10039;42.632;23.408;2023-03-21T01:43:58;94792.16;;;11.52;55.10
19761;BME280;10039;42.632;23.408;2023-03-21T01:46:43;94820.63;;;11.74;55.27
19761;BME280;10039;42.632;23.408;2023-03-21T01:52:02;94791.53;;;11.16;56.13
19761;BME280;10039;42.632;23.408;2023-03-21T01:54:32;94827.34;;;11.18;56.50
19761;BME280;10039;42.632;23.408;2023-03-21T01:57:06;94812.31;;;11.09;56.76
19761;BME280;10039;42.632;23.408;2023-03-21T01:59:40;94817.00;;;11.20;56.39
19761;BME280;10039;42.632;23.408;2023-03-21T02:02:21;94819.50;;;11.27;56.43
19761;BME280;10039;42.632;23.408;2023-03-21T02:04:48;94818.09;;;11.07;56.55
19761;BME280;10039;42.632;23.408;2023-03-21T02:07:33;94789.44;;;10.76;57.19
19761;BME280;10039;42.632;23.408;2023-03-21T02:10:03;94830.41;;;11.01;57.17
19761;BME280;10039;42.632;23.408;2023-03-21T02:12:30;94793.09;;;10.66;57.30
19761;BME280;10039;42.632;23.408;2023-03-21T02:14:57;94798.09;;;10.64;57.52
19761;BME280;10039;42.632;23.408;2023-03-21T02:30:48;94812.25;;;10.25;59.84
19761;BME280;10039;42.632;23.408;2023-03-21T02:33:45;94817.19;;;10.27;60.12
19761;BME280;10039;42.632;23.408;2023-03-21T02:39:22;94791.00;;;10.02;60.73
19761;BME280;10039;42.632;23.408;2023-03-21T02:47:13;94771.00;;;9.72;61.48
19761;BME280;10039;42.632;23.408;2023-03-21T02:49:49;94783.09;;;9.76;61.55
19761;BME280;10039;42.632;23.408;2023-03-21T02:52:22;94806.56;;;9.85;61.57
19761;BME280;10039;42.632;23.408;2023-03-21T02:54:49;94780.03;;;9.78;61.17
19761;BME280;10039;42.632;23.408;2023-03-21T02:57:17;94807.34;;;10.04;61.20
19761;BME280;10039;42.632;23.408;2023-03-21T02:59:45;94772.53;;;9.92;60.91
19761;BME280;10039;42.632;23.408;2023-03-21T03:02:11;94795.59;;;10.02;60.63
19761;BME280;10039;42.632;23.408;2023-03-21T03:04:37;94772.53;;;9.92;60.85
19761;BME280;10039;42.632;23.408;2023-03-21T03:13:06;94805.53;;;9.98;60.91
19761;BME280;10039;42.632;23.408;2023-03-21T03:18:41;94808.41;;;10.07;61.19
19761;BME280;10039;42.632;23.408;2023-03-21T03:26:30;94785.59;;;10.06;59.88
19761;BME280;10039;42.632;23.408;2023-03-21T03:29:02;94754.50;;;10.00;59.96
19761;BME280;10039;42.632;23.408;2023-03-21T03:31:32;94804.53;;;10.31;59.60
19761;BME280;10039;42.632;23.408;2023-03-21T03:34:04;94796.44;;;9.96;60.01
19761;BME280;10039;42.632;23.408;2023-03-21T03:36:36;94767.28;;;9.69;60.66
19761;BME280;10039;42.632;23.408;2023-03-21T03:39:06;94794.31;;;9.87;60.27
19761;BME280;10039;42.632;23.408;2023-03-21T03:41:39;94811.59;;;10.02;61.01
19761;BME280;10039;42.632;23.408;2023-03-21T03:44:06;94794.44;;;9.80;60.99
19761;BME280;10039;42.632;23.408;2023-03-21T03:46:38;94792.19;;;9.59;61.41
19761;BME280;10039;42.632;23.408;2023-03-21T03:49:18;94797.25;;;9.54;61.98
19761;BME280;10039;42.632;23.408;2023-03-21T03:52:06;94808.72;;;9.51;62.59
19761;BME280;10039;42.632;23.408;2023-03-21T03:54:42;94802.44;;;9.38;63.29
19761;BME280;10039;42.632;23.408;2023-03-21T03:57:10;94804.50;;;9.30;63.40
19761;BME280;10039;42.632;23.408;2023-03-21T03:59:39;94805.38;;;9.24;62.91
19761;BME280;10039;42.632;23.408;2023-03-21T04:02:06;94769.28;;;9.19;62.36
19761;BME280;10039;42.632;23.408;2023-03-21T04:04:32;94802.22;;;9.52;61.97
19761;BME280;10039;42.632;23.408;2023-03-21T04:06:57;94784.06;;;9.24;62.02
19761;BME280;10039;42.632;23.408;2023-03-21T04:09:24;94800.47;;;9.42;61.72
19761;BME280;10039;42.632;23.408;2023-03-21T04:11:53;94803.50;;;9.44;61.43
19761;BME280;10039;42.632;23.408;2023-03-21T04:14:19;94819.28;;;9.54;61.11
19761;BME280;10039;42.632;23.408;2023-03-21T04:16:45;94803.53;;;9.40;61.24
19761;BME280;10039;42.632;23.408;2023-03-21T04:19:11;94802.09;;;9.36;61.51
19761;BME280;10039;42.632;23.408;2023-03-21T04:21:37;94780.28;;;9.21;61.36
19761;BME280;10039;42.632;23.408;2023-03-21T04:24:03;94814.34;;;9.33;61.97
19761;BME280;10039;42.632;23.408;2023-03-21T04:26:30;94810.63;;;9.27;61.95
19761;BME280;10039;42.632;23.408;2023-03-21T04:28:58;94800.31;;;9.29;61.91
19761;BME280;10039;42.632;23.408;2023-03-21T04:31:27;94805.31;;;9.27;62.54
19761;BME280;10039;42.632;23.408;2023-03-21T04:33:58;94791.84;;;9.11;62.89
19761;BME280;10039;42.632;23.408;2023-03-21T04:36:25;94801.38;;;9.35;62.40
19761;BME280;10039;42.632;23.408;2023-03-21T04:39:04;94781.56;;;9.13;62.45
19761;BME280;10039;42.632;23.408;2023-03-21T04:41:30;94781.16;;;9.15;62.98
19761;BME280;10039;42.632;23.408;2023-03-21T04:43:56;94787.34;;;9.08;63.49
19761;BME280;10039;42.632;23.408;2023-03-21T04:46:22;94791.22;;;9.04;63.77
19761;BME280;10039;42.632;23.408;2023-03-21T04:48:48;94778.50;;;8.92;64.10
19761;BME280;10039;42.632;23.408;2023-03-21T04:51:15;94800.19;;;8.90;64.19
19761;BME280;10039;42.632;23.408;2023-03-21T04:53:40;94784.13;;;8.71;64.42
19761;BME280;10039;42.632;23.408;2023-03-21T04:56:10;94802.78;;;8.94;63.99
19761;BME280;10039;42.632;23.408;2023-03-21T04:58:37;94794.50;;;8.88;64.01
19761;BME280;10039;42.632;23.408;2023-03-21T05:01:05;94811.78;;;9.03;63.72
19761;BME280;10039;42.632;23.408;2023-03-21T05:03:31;94798.16;;;8.98;63.17
19761;BME280;10039;42.632;23.408;2023-03-21T05:06:01;94813.63;;;9.06;63.14
19761;BME280;10039;42.632;23.408;2023-03-21T05:08:26;94811.47;;;8.98;63.09
19761;BME280;10039;42.632;23.408;2023-03-21T05:10:52;94793.28;;;8.93;63.43
19761;BME280;10039;42.632;23.408;2023-03-21T05:13:21;94793.59;;;8.98;63.55
19761;BME280;10039;42.632;23.408;2023-03-21T05:15:46;94818.81;;;9.13;63.36
19761;BME280;10039;42.632;23.408;2023-03-21T05:18:12;94802.84;;;9.13;63.25
19761;BME280;10039;42.632;23.408;2023-03-21T05:20:39;94833.78;;;9.30;62.91
19761;BME280;10039;42.632;23.408;2023-03-21T05:23:10;94790.78;;;9.09;62.68
19761;BME280;10039;42.632;23.408;2023-03-21T05:25:37;94809.84;;;9.27;62.18
19761;BME280;10039;42.632;23.408;2023-03-21T05:28:04;94798.75;;;9.09;62.92
19761;BME280;10039;42.632;23.408;2023-03-21T05:30:31;94811.78;;;9.26;62.82
19761;BME280;10039;42.632;23.408;2023-03-21T05:32:56;94783.38;;;9.20;63.02
19761;BME280;10039;42.632;23.408;2023-03-21T05:35:22;94830.16;;;9.40;62.61
19761;BME280;10039;42.632;23.408;2023-03-21T05:37:48;94825.16;;;9.23;63.37
19761;BME280;10039;42.632;23.408;2023-03-21T05:40:14;94804.00;;;9.12;63.08
19761;BME280;10039;42.632;23.408;2023-03-21T05:42:40;94806.09;;;9.24;63.18
19761;BME280;10039;42.632;23.408;2023-03-21T05:45:06;94828.78;;;9.55;62.13
19761;BME280;10039;42.632;23.408;2023-03-21T05:47:32;94792.25;;;9.33;62.30
19761;BME280;10039;42.632;23.408;2023-03-21T05:49:58;94828.09;;;9.51;62.66
19761;BME280;10039;42.632;23.408;2023-03-21T05:52:23;94825.31;;;9.58;62.32
19761;BME280;10039;42.632;23.408;2023-03-21T05:54:49;94786.13;;;9.36;62.28
19761;BME280;10039;42.632;23.408;2023-03-21T05:57:14;94809.13;;;9.69;62.72
19761;BME280;10039;42.632;23.408;2023-03-21T05:59:44;94815.06;;;9.76;62.73
19761;BME280;10039;42.632;23.408;2023-03-21T06:02:10;94796.34;;;9.60;62.78
19761;BME280;10039;42.632;23.408;2023-03-21T06:04:36;94788.50;;;9.73;62.28
19761;BME280;10039;42.632;23.408;2023-03-21T06:07:01;94783.19;;;9.73;62.32
19761;BME280;10039;42.632;23.408;2023-03-21T06:09:27;94775.19;;;9.73;62.04
19761;BME280;10039;42.632;23.408;2023-03-21T06:11:54;94776.75;;;9.90;61.91
19761;BME280;10039;42.632;23.408;2023-03-21T06:14:22;94761.66;;;9.83;61.67
19761;BME280;10039;42.632;23.408;2023-03-21T06:16:48;94773.56;;;9.98;61.53
19761;BME280;10039;42.632;23.408;2023-03-21T06:19:15;94776.28;;;10.14;61.09
19761;BME280;10039;42.632;23.408;2023-03-21T06:21:41;94752.94;;;10.02;61.01
19761;BME280;10039;42.632;23.408;2023-03-21T06:24:08;94798.16;;;10.25;61.46
19761;BME280;10039;42.632;23.408;2023-03-21T06:26:33;94784.41;;;10.26;60.84
19761;BME280;10039;42.632;23.408;2023-03-21T06:28:59;94768.13;;;10.40;60.46
19761;BME280;10039;42.632;23.408;2023-03-21T06:31:25;94789.91;;;10.55;60.44
19761;BME280;10039;42.632;23.408;2023-03-21T06:33:51;94769.28;;;10.55;60.33
19761;BME280;10039;42.632;23.408;2023-03-21T06:36:17;94776.75;;;10.64;59.92
19761;BME280;10039;42.632;23.408;2023-03-21T06:38:43;94803.03;;;10.81;59.55
19761;BME280;10039;42.632;23.408;2023-03-21T06:41:09;94793.63;;;10.93;58.98
19761;BME280;10039;42.632;23.408;2023-03-21T06:43:35;94782.28;;;10.89;58.68
19761;BME280;10039;42.632;23.408;2023-03-21T06:46:01;94776.84;;;10.92;58.32
19761;BME280;10039;42.632;23.408;2023-03-21T06:48:27;94795.28;;;11.18;57.97
19761;BME280;10039;42.632;23.408;2023-03-21T06:50:53;94785.38;;;11.03;57.71
19761;BME280;10039;42.632;23.408;2023-03-21T06:53:21;94790.78;;;11.15;57.40
19761;BME280;10039;42.632;23.408;2023-03-21T06:55:50;94804.53;;;11.46;57.78
19761;BME280;10039;42.632;23.408;2023-03-21T06:58:16;94780.66;;;11.39;56.54
19761;BME280;10039;42.632;23.408;2023-03-21T07:00:42;94764.53;;;11.42;55.98
19761;BME280;10039;42.632;23.408;2023-03-21T07:03:09;94772.03;;;11.63;56.13
19761;BME280;10039;42.632;23.408;2023-03-21T07:05:35;94780.75;;;11.80;56.22
19761;BME280;10039;42.632;23.408;2023-03-21T07:08:01;94791.44;;;12.08;56.01
19761;BME280;10039;42.632;23.408;2023-03-21T07:10:27;94810.81;;;12.40;56.00
19761;BME280;10039;42.632;23.408;2023-03-21T07:12:52;94789.16;;;12.35;54.69
19761;BME280;10039;42.632;23.408;2023-03-21T07:15:18;94817.91;;;12.72;54.94
19761;BME280;10039;42.632;23.408;2023-03-21T07:17:44;94791.75;;;12.76;54.58
19761;BME280;10039;42.632;23.408;2023-03-21T07:20:10;94809.69;;;13.04;52.67
19761;BME280;10039;42.632;23.408;2023-03-21T07:22:37;94812.78;;;13.15;52.16
19761;BME280;10039;42.632;23.408;2023-03-21T07:25:03;94815.31;;;13.31;52.02
19761;BME280;10039;42.632;23.408;2023-03-21T07:27:29;94806.44;;;13.34;52.76
19761;BME280;10039;42.632;23.408;2023-03-21T07:29:55;94817.03;;;13.49;54.67
19761;BME280;10039;42.632;23.408;2023-03-21T07:32:21;94813.78;;;13.54;54.36
19761;BME280;10039;42.632;23.408;2023-03-21T07:34:47;94782.88;;;13.16;55.95
19761;BME280;10039;42.632;23.408;2023-03-21T07:37:12;94793.72;;;13.59;55.35
19761;BME280;10039;42.632;23.408;2023-03-21T07:39:38;94805.81;;;13.63;55.80
19761;BME280;10039;42.632;23.408;2023-03-21T07:42:04;94802.09;;;13.61;56.20
19761;BME280;10039;42.632;23.408;2023-03-21T07:44:30;94800.09;;;13.74;55.46
19761;BME280;10039;42.632;23.408;2023-03-21T07:47:00;94791.41;;;13.82;54.83
19761;BME280;10039;42.632;23.408;2023-03-21T07:49:25;94778.97;;;13.76;54.91
19761;BME280;10039;42.632;23.408;2023-03-21T07:51:51;94769.22;;;13.69;55.14
19761;BME280;10039;42.632;23.408;2023-03-21T07:54:17;94795.25;;;13.81;55.28
19761;BME280;10039;42.632;23.408;2023-03-21T07:56:46;94802.94;;;13.92;54.24
19761;BME280;10039;42.632;23.408;2023-03-21T07:59:12;94789.09;;;13.93;54.14
19761;BME280;10039;42.632;23.408;2023-03-21T08:01:37;94792.88;;;14.17;53.65
19761;BME280;10039;42.632;23.408;2023-03-21T08:04:03;94813.91;;;14.40;53.09
19761;BME280;10039;42.632;23.408;2023-03-21T08:06:29;94769.06;;;14.07;52.98
19761;BME280;10039;42.632;23.408;2023-03-21T08:08:57;94786.94;;;14.22;52.89
19761;BME280;10039;42.632;23.408;2023-03-21T08:11:23;94792.13;;;14.38;52.54
19761;BME280;10039;42.632;23.408;2023-03-21T08:13:49;94782.31;;;14.44;52.45
19761;BME280;10039;42.632;23.408;2023-03-21T08:16:16;94785.34;;;14.55;52.25
19761;BME280;10039;42.632;23.408;2023-03-21T08:18:42;94805.13;;;14.70;51.71
19761;BME280;10039;42.632;23.408;2023-03-21T08:21:07;94790.50;;;14.71;51.93
19761;BME280;10039;42.632;23.408;2023-03-21T08:23:33;94809.38;;;14.89;50.88
19761;BME280;10039;42.632;23.408;2023-03-21T08:25:59;94786.38;;;14.79;51.19
19761;BME280;10039;42.632;23.408;2023-03-21T08:28:25;94801.66;;;15.00;51.39
19761;BME280;10039;42.632;23.408;2023-03-21T08:30:51;94784.31;;;14.92;51.15
19761;BME280;10039;42.632;23.408;2023-03-21T08:33:16;94779.59;;;15.05;51.12
19761;BME280;10039;42.632;23.408;2023-03-21T08:35:43;94780.94;;;15.09;50.13
19761;BME280;10039;42.632;23.408;2023-03-21T08:38:09;94784.38;;;15.19;50.34
19761;BME280;10039;42.632;23.408;2023-03-21T08:40:36;94773.69;;;15.28;50.19
19761;BME280;10039;42.632;23.408;2023-03-21T08:43:01;94802.75;;;15.60;50.24
19761;BME280;10039;42.632;23.408;2023-03-21T08:45:27;94763.72;;;15.46;48.99
19761;BME280;10039;42.632;23.408;2023-03-21T08:47:53;94782.13;;;15.57;49.28
19761;BME280;10039;42.632;23.408;2023-03-21T08:50:21;94765.84;;;15.69;48.37
19761;BME280;10039;42.632;23.408;2023-03-21T08:52:47;94786.78;;;15.83;47.96
19761;BME280;10039;42.632;23.408;2023-03-21T08:55:14;94762.09;;;15.67;48.59
19761;BME280;10039;42.632;23.408;2023-03-21T08:57:41;94797.41;;;16.04;47.68
19761;BME280;10039;42.632;23.408;2023-03-21T09:00:10;94770.34;;;15.90;47.64
19761;BME280;10039;42.632;23.408;2023-03-21T09:02:44;94786.00;;;16.09;47.72
19761;BME280;10039;42.632;23.408;2023-03-21T09:05:11;94791.09;;;16.25;47.60
19761;BME280;10039;42.632;23.408;2023-03-21T09:07:38;94786.31;;;16.20;47.42
19761;BME280;10039;42.632;23.408;2023-03-21T09:10:05;94782.41;;;16.12;46.70
19761;BME280;10039;42.632;23.408;2023-03-21T09:12:32;94779.28;;;15.96;47.06
19761;BME280;10039;42.632;23.408;2023-03-21T09:14:58;94769.56;;;15.98;47.73
19761;BME280;10039;42.632;23.408;2023-03-21T09:17:27;94767.47;;;15.84;46.88
19761;BME280;10039;42.632;23.408;2023-03-21T09:19:53;94752.53;;;15.92;47.86
19761;BME280;10039;42.632;23.408;2023-03-21T09:22:18;94763.59;;;16.03;46.54
19761;BME280;10039;42.632;23.408;2023-03-21T09:24:46;94754.91;;;15.90;46.95
19761;BME280;10039;42.632;23.408;2023-03-21T09:27:15;94727.44;;;15.69;47.03
19761;BME280;10039;42.632;23.408;2023-03-21T09:29:43;94750.72;;;15.98;47.21
19761;BME280;10039;42.632;23.408;2023-03-21T09:32:09;94748.31;;;16.09;46.93
19761;BME280;10039;42.632;23.408;2023-03-21T09:34:37;94749.22;;;16.15;46.51
19761;BME280;10039;42.632;23.408;2023-03-21T09:37:05;94706.78;;;15.92;46.69
19761;BME280;10039;42.632;23.408;2023-03-21T09:39:35;94735.75;;;16.15;46.44
19761;BME280;10039;42.632;23.408;2023-03-21T09:42:09;94698.22;;;16.03;46.93
19761;BME280;10039;42.632;23.408;2023-03-21T09:44:57;94726.31;;;16.38;46.58
19761;BME280;10039;42.632;23.408;2023-03-21T09:47:30;94714.50;;;16.26;46.46
19761;BME280;10039;42.632;23.408;2023-03-21T09:50:12;94727.00;;;16.56;46.50
19761;BME280;10039;42.632;23.408;2023-03-21T09:52:48;94736.78;;;16.77;46.80
19761;BME280;10039;42.632;23.408;2023-03-21T09:55:23;94731.19;;;16.89;46.38
19761;BME280;10039;42.632;23.408;2023-03-21T10:00:29;94709.47;;;16.93;45.32
19761;BME280;10039;42.632;23.408;2023-03-21T10:03:01;94707.94;;;17.01;45.22
19761;BME280;10039;42.632;23.408;2023-03-21T10:05:32;94732.75;;;17.05;44.70
19761;BME280;10039;42.632;23.408;2023-03-21T10:08:05;94717.59;;;17.16;45.09
19761;BME280;10039;42.632;23.408;2023-03-21T10:11:00;94702.25;;;16.99;44.14
19761;BME280;10039;42.632;23.408;2023-03-21T10:13:28;94700.69;;;17.07;44.17
19761;BME280;10039;42.632;23.408;2023-03-21T10:15:59;94679.00;;;17.01;44.58
19761;BME280;10039;42.632;23.408;2023-03-21T10:18:29;94700.88;;;17.36;43.78
19761;BME280;10039;42.632;23.408;2023-03-21T10:20:55;94680.50;;;17.26;43.22
19761;BME280;10039;42.632;23.408;2023-03-21T10:23:24;94668.69;;;17.00;42.98
19761;BME280;10039;42.632;23.408;2023-03-21T10:25:54;94689.34;;;17.26;42.94
19761;BME280;10039;42.632;23.408;2023-03-21T10:28:31;94685.81;;;17.20;42.92
19761;BME280;10039;42.632;23.408;2023-03-21T10:31:01;94675.75;;;17.21;42.53
19761;BME280;10039;42.632;23.408;2023-03-21T10:33:37;94697.44;;;17.50;42.92
19761;BME280;10039;42.632;23.408;2023-03-21T10:36:10;94703.13;;;17.52;42.76
19761;BME280;10039;42.632;23.408;2023-03-21T10:38:42;94687.03;;;17.57;43.47
19761;BME280;10039;42.632;23.408;2023-03-21T10:41:10;94685.03;;;17.67;43.79
19761;BME280;10039;42.632;23.408;2023-03-21T10:43:37;94691.47;;;17.84;41.43
19761;BME280;10039;42.632;23.408;2023-03-21T10:46:15;94698.47;;;18.04;41.82
19761;BME280;10039;42.632;23.408;2023-03-21T10:48:49;94670.16;;;17.86;40.50
19761;BME280;10039;42.632;23.408;2023-03-21T10:51:30;94675.41;;;17.51;40.54
19761;BME280;10039;42.632;23.408;2023-03-21T10:54:00;94684.75;;;17.65;41.21
19761;BME280;10039;42.632;23.408;2023-03-21T10:56:30;94673.69;;;17.92;42.26
19761;BME280;10039;42.632;23.408;2023-03-21T10:59:00;94664.38;;;17.78;39.77
19761;BME280;10039;42.632;23.408;2023-03-21T11:01:40;94671.75;;;18.06;40.25
19761;BME280;10039;42.632;23.408;2023-03-21T11:04:13;94642.22;;;18.03;39.84
19761;BME280;10039;42.632;23.408;2023-03-21T11:06:43;94647.91;;;18.19;39.66
19761;BME280;10039;42.632;23.408;2023-03-21T11:09:21;94658.16;;;18.44;39.77
19761;BME280;10039;42.632;23.408;2023-03-21T11:12:02;94662.53;;;18.42;38.92
19761;BME280;10039;42.632;23.408;2023-03-21T11:14:39;94656.03;;;18.34;38.73
19761;BME280;10039;42.632;23.408;2023-03-21T11:17:33;94650.25;;;18.26;38.85
19761;BME280;10039;42.632;23.408;2023-03-21T11:20:04;94658.50;;;18.23;38.38
19761;BME280;10039;42.632;23.408;2023-03-21T11:22:41;94619.31;;;18.13;39.65
19761;BME280;10039;42.632;23.408;2023-03-21T11:25:10;94657.03;;;18.36;37.85
19761;BME280;10039;42.632;23.408;2023-03-21T11:27:53;94632.63;;;18.31;39.93
19761;BME280;10039;42.632;23.408;2023-03-21T11:30:25;94643.78;;;18.09;38.88
19761;BME280;10039;42.632;23.408;2023-03-21T11:32:56;94610.38;;;17.93;37.70
19761;BME280;10039;42.632;23.408;2023-03-21T11:35:32;94638.78;;;18.46;38.86
19761;BME280;10039;42.632;23.408;2023-03-21T11:37:59;94631.66;;;18.63;38.58
19761;BME280;10039;42.632;23.408;2023-03-21T11:45:55;94601.25;;;18.68;37.55
19761;BME280;10039;42.632;23.408;2023-03-21T11:48:22;94614.44;;;18.80;37.44
19761;BME280;10039;42.632;23.408;2023-03-21T11:50:50;94626.47;;;18.79;37.41
19761;BME280;10039;42.632;23.408;2023-03-21T12:03:58;94599.97;;;18.63;37.14
19761;BME280;10039;42.632;23.408;2023-03-21T12:06:40;94583.47;;;18.61;37.07
19761;BME280;10039;42.632;23.408;2023-03-21T12:09:33;94591.31;;;18.79;36.58
19761;BME280;10039;42.632;23.408;2023-03-21T12:17:59;94589.59;;;18.82;36.39
19761;BME280;10039;42.632;23.408;2023-03-21T12:20:38;94587.91;;;18.64;36.08
19761;BME280;10039;42.632;23.408;2023-03-21T12:26:20;94583.53;;;18.87;37.02
19761;BME280;10039;42.632;23.408;2023-03-21T12:29:18;94578.22;;;18.92;36.91
19761;BME280;10039;42.632;23.408;2023-03-21T12:34:30;94559.31;;;18.58;36.83
19761;BME280;10039;42.632;23.408;2023-03-21T12:37:07;94553.22;;;18.43;37.68
19761;BME280;10039;42.632;23.408;2023-03-21T12:39:38;94573.59;;;18.78;37.36
19761;BME280;10039;42.632;23.408;2023-03-21T12:45:08;94549.38;;;18.69;36.61
19761;BME280;10039;42.632;23.408;2023-03-21T12:47:40;94539.78;;;18.68;36.92
19761;BME280;10039;42.632;23.408;2023-03-21T12:50:14;94564.16;;;18.88;37.73
19761;BME280;10039;42.632;23.408;2023-03-21T12:52:53;94523.09;;;18.70;37.31
19761;BME280;10039;42.632;23.408;2023-03-21T12:55:53;94552.38;;;18.91;36.69
19761;BME280;10039;42.632;23.408;2023-03-21T12:58:21;94540.25;;;18.87;37.06
19761;BME280;10039;42.632;23.408;2023-03-21T13:00:55;94540.34;;;18.92;36.36
19761;BME280;10039;42.632;23.408;2023-03-21T13:05:57;94509.84;;;18.92;36.90
19761;BME280;10039;42.632;23.408;2023-03-21T13:10:55;94527.94;;;19.25;36.16
19761;BME280;10039;42.632;23.408;2023-03-21T13:19:21;94505.59;;;18.85;36.88
19761;BME280;10039;42.632;23.408;2023-03-21T13:22:04;94507.72;;;19.01;37.58
19761;BME280;10039;42.632;23.408;2023-03-21T13:27:20;94526.94;;;19.03;37.36
19761;BME280;10039;42.632;23.408;2023-03-21T13:29:59;94506.41;;;18.71;37.06
19761;BME280;10039;42.632;23.408;2023-03-21T13:32:33;94469.56;;;18.54;37.16
19761;BME280;10039;42.632;23.408;2023-03-21T13:35:02;94504.09;;;18.84;37.95
19761;BME280;10039;42.632;23.408;2023-03-21T13:37:31;94506.13;;;18.89;37.91
19761;BME280;10039;42.632;23.408;2023-03-21T13:40:04;94503.09;;;18.62;38.14
19761;BME280;10039;42.632;23.408;2023-03-21T13:42:43;94497.13;;;18.58;38.00
19761;BME280;10039;42.632;23.408;2023-03-21T13:45:20;94477.22;;;18.55;37.91
19761;BME280;10039;42.632;23.408;2023-03-21T13:47:57;94488.13;;;18.66;38.23
19761;BME280;10039;42.632;23.408;2023-03-21T13:50:27;94491.66;;;18.72;38.25
19761;BME280;10039;42.632;23.408;2023-03-21T13:56:05;94477.53;;;18.63;38.57
19761;BME280;10039;42.632;23.408;2023-03-21T14:03:29;94486.25;;;18.72;38.22
19761;BME280;10039;42.632;23.408;2023-03-21T14:05:57;94492.97;;;18.77;38.50
19761;BME280;10039;42.632;23.408;2023-03-21T14:08:25;94478.69;;;18.56;38.30
19761;BME280;10039;42.632;23.408;2023-03-21T14:10:55;94491.19;;;18.54;38.83
19761;BME280;10039;42.632;23.408;2023-03-21T14:13:25;94469.78;;;18.50;38.48
19761;BME280;10039;42.632;23.408;2023-03-21T14:15:53;94498.91;;;18.61;38.53
19761;BME280;10039;42.632;23.408;2023-03-21T14:18:23;94476.13;;;18.47;39.08
19761;BME280;10039;42.632;23.408;2023-03-21T14:20:54;94488.75;;;18.56;38.51
19761;BME280;10039;42.632;23.408;2023-03-21T14:23:21;94495.09;;;18.53;39.14
19761;BME280;10039;42.632;23.408;2023-03-21T14:25:47;94481.75;;;18.44;39.05
19761;BME280;10039;42.632;23.408;2023-03-21T14:28:17;94477.47;;;18.37;39.05
19761;BME280;10039;42.632;23.408;2023-03-21T14:30:45;94487.47;;;18.51;38.82
19761;BME280;10039;42.632;23.408;2023-03-21T14:35:56;94479.09;;;18.49;39.07
19761;BME280;10039;42.632;23.408;2023-03-21T14:38:25;94490.84;;;18.46;39.84
19761;BME280;10039;42.632;23.408;2023-03-21T14:40:53;94461.50;;;18.19;39.94